Mc Caskill, Arkansas
Current Conditions -  °F | °C
As of 8:56 PM on Friday 19 Dec 2014 (Local Time) from KADF Reporting Station
Overcast Overcast  
Wind Chill: 41°   Ceiling: 4700
Heat Index: 44°   Visibility: 8mi
Dew Point: 43°   Wind: 6mph
Humidity: 97%   Direction: 40°NE
Pressure: 30.23"   Gusts: NA
Location:  33.9177°N, 93.6391°W
Report Text: KADF 200256Z AUTO 04005KT 8SM OVC047 07/06 A3023 RMK AO2 51005 T00660061 SLP253
Loading
Personal Weather Stations






























Interactive Weather Map New forecast layout! Learn more

10-Day Weather Forecast

Advertisements
Track Severe Weather on mobile